Time;durP1;ratioP1;P1;durP2;ratioP2;P2;SDS_P1;SDS_P2;PMS_P1;PMS_P2;Temp;Humidity;BMP_temperature;BMP_pressure;BME280_temperature;BME280_humidity;BME280_pressure;Samples;Min_cycle;Max_cycle;Signal;HPM_P1;HPM_P2
2023/05/14 00:01:59;;;;;;;5.15;2.63;;;;;;;;;;10027838;28;20049;-62
2023/05/14 00:06:53;;;;;;;2.70;2.50;;;;;;;;;;10027469;28;20065;-62
2023/05/14 00:11:47;;;;;;;2.95;2.75;;;;;;;;;;10037953;28;20045;-62
2023/05/14 00:16:41;;;;;;;8.20;3.17;;;;;;;;;;10032030;28;20446;-63
2023/05/14 00:21:35;;;;;;;4.15;2.70;;;;;;;;;;10034207;28;20409;-63
2023/05/14 00:26:29;;;;;;;3.08;2.83;;;;;;;;;;10030480;28;20058;-63
2023/05/14 00:31:23;;;;;;;3.97;3.58;;;;;;;;;;10029717;28;20042;-62
2023/05/14 00:36:16;;;;;;;4.45;3.15;;;;;;;;;;10033579;28;20042;-63
2023/05/14 00:41:09;;;;;;;3.40;3.10;;;;;;;;;;10026919;28;20382;-63
2023/05/14 00:46:02;;;;;;;4.40;2.80;;;;;;;;;;10044622;28;20128;-62
2023/05/14 00:50:55;;;;;;;2.80;2.45;;;;;;;;;;10032487;28;20457;-62
2023/05/14 00:55:51;;;;;;;3.13;2.83;;;;;;;;;;10050650;28;20062;-63
2023/05/14 01:00:45;;;;;;;3.90;2.42;;;;;;;;;;10029677;28;20049;-62
2023/05/14 01:06:05;;;;;;;6.05;4.32;;;;;;;;;;10027495;28;20525;-62
2023/05/14 01:11:22;;;;;;;3.80;3.47;;;;;;;;;;10025603;28;20500;-62
2023/05/14 01:16:18;;;;;;;4.05;3.70;;;;;;;;;;10007474;28;20058;-63
2023/05/14 01:21:39;;;;;;;3.42;2.97;;;;;;;;;;10028590;28;20069;-63
2023/05/14 01:26:33;;;;;;;3.67;2.40;;;;;;;;;;10022170;28;20049;-63
2023/05/14 01:31:27;;;;;;;3.72;2.42;;;;;;;;;;10050144;28;20105;-63
2023/05/14 01:36:20;;;;;;;3.85;2.33;;;;;;;;;;10049098;28;20057;-64
2023/05/14 01:41:14;;;;;;;2.70;2.50;;;;;;;;;;10029600;28;20397;-64
2023/05/14 01:46:06;;;;;;;2.58;2.30;;;;;;;;;;10030275;28;20058;-62
2023/05/14 01:51:01;;;;;;;2.65;2.42;;;;;;;;;;10029547;28;20076;-64
2023/05/14 01:55:54;;;;;;;2.92;2.22;;;;;;;;;;10024248;28;20061;-63
2023/05/14 02:00:48;;;;;;;2.67;2.17;;;;;;;;;;10027806;28;20050;-63
2023/05/14 02:05:41;;;;;;;2.97;2.28;;;;;;;;;;10024026;28;20089;-62
2023/05/14 02:10:35;;;;;;;3.95;2.33;;;;;;;;;;10020257;28;20052;-64
2023/05/14 02:15:28;;;;;;;7.05;2.40;;;;;;;;;;10024333;28;20125;-63
2023/05/14 02:20:21;;;;;;;3.38;3.10;;;;;;;;;;10034797;28;20065;-63
2023/05/14 02:25:15;;;;;;;4.25;2.70;;;;;;;;;;10025679;28;20073;-63
2023/05/14 02:30:11;;;;;;;2.72;2.35;;;;;;;;;;10027306;28;20073;-63
2023/05/14 02:35:04;;;;;;;2.90;2.30;;;;;;;;;;10045081;28;20137;-63
2023/05/14 02:39:56;;;;;;;2.95;2.72;;;;;;;;;;10030823;28;20088;-63
2023/05/14 02:44:51;;;;;;;3.55;2.45;;;;;;;;;;10071076;28;20139;-63
2023/05/14 02:49:44;;;;;;;8.23;2.80;;;;;;;;;;10049680;28;20096;-62
2023/05/14 02:54:37;;;;;;;3.60;2.35;;;;;;;;;;10044001;28;20089;-63
2023/05/14 02:59:30;;;;;;;2.60;2.40;;;;;;;;;;10041600;28;20050;-63
2023/05/14 03:04:23;;;;;;;2.90;2.63;;;;;;;;;;10036297;28;20107;-64
2023/05/14 03:09:16;;;;;;;2.95;2.75;;;;;;;;;;10042538;28;20048;-64
2023/05/14 03:14:09;;;;;;;2.17;2.03;;;;;;;;;;10037975;28;20061;-64
2023/05/14 03:19:03;;;;;;;2.15;1.95;;;;;;;;;;10033213;28;20046;-64
2023/05/14 03:23:56;;;;;;;2.30;2.10;;;;;;;;;;10032407;28;20144;-64
2023/05/14 03:28:50;;;;;;;2.55;1.95;;;;;;;;;;10032248;28;20073;-64
2023/05/14 03:33:42;;;;;;;2.95;2.03;;;;;;;;;;10062929;28;20046;-64
2023/05/14 03:38:36;;;;;;;2.08;1.85;;;;;;;;;;10031865;28;20102;-63
2023/05/14 03:43:28;;;;;;;2.45;2.10;;;;;;;;;;10033128;28;20049;-64
2023/05/14 03:48:22;;;;;;;3.35;2.47;;;;;;;;;;10026667;28;20045;-63
2023/05/14 03:53:15;;;;;;;1.92;1.83;;;;;;;;;;10041760;28;20054;-64
2023/05/14 03:58:12;;;;;;;2.50;2.30;;;;;;;;;;10046029;28;20042;-64
2023/05/14 04:03:06;;;;;;;3.75;2.90;;;;;;;;;;10050488;28;20084;-64
2023/05/14 04:08:00;;;;;;;2.72;2.15;;;;;;;;;;10050377;28;20105;-64
2023/05/14 04:12:56;;;;;;;3.42;2.35;;;;;;;;;;10040160;28;20057;-64
2023/05/14 04:17:54;;;;;;;2.50;2.30;;;;;;;;;;10034004;28;20053;-64
2023/05/14 04:22:47;;;;;;;4.55;2.67;;;;;;;;;;10040567;28;20049;-64
2023/05/14 04:27:41;;;;;;;3.97;2.83;;;;;;;;;;10051747;28;20084;-64
2023/05/14 04:32:35;;;;;;;4.45;2.88;;;;;;;;;;10040402;28;20050;-63
2023/05/14 04:37:29;;;;;;;2.92;2.58;;;;;;;;;;10043093;28;20050;-63
2023/05/14 04:42:24;;;;;;;4.30;2.72;;;;;;;;;;10055046;28;20052;-63
2023/05/14 04:47:19;;;;;;;2.35;2.17;;;;;;;;;;10048765;28;20421;-63
2023/05/14 04:52:14;;;;;;;3.88;2.20;;;;;;;;;;10036815;28;20064;-63
2023/05/14 04:57:10;;;;;;;4.35;3.03;;;;;;;;;;10043088;28;20041;-63
2023/05/14 05:02:04;;;;;;;3.65;2.78;;;;;;;;;;10040662;28;20117;-64
2023/05/14 05:06:57;;;;;;;3.92;2.65;;;;;;;;;;10032580;28;20066;-63
2023/05/14 05:11:51;;;;;;;3.50;2.28;;;;;;;;;;10041138;28;20046;-62
2023/05/14 05:16:44;;;;;;;3.10;2.90;;;;;;;;;;10042148;28;20049;-62
2023/05/14 05:21:39;;;;;;;2.92;2.70;;;;;;;;;;10048483;28;20104;-62
2023/05/14 05:26:35;;;;;;;4.07;2.85;;;;;;;;;;10054551;28;20069;-63
2023/05/14 05:31:30;;;;;;;2.95;2.60;;;;;;;;;;10047827;28;20141;-63
2023/05/14 05:36:24;;;;;;;2.70;2.50;;;;;;;;;;10029749;28;20092;-64
2023/05/14 05:41:17;;;;;;;9.65;3.92;;;;;;;;;;10043207;28;20050;-64
2023/05/14 05:46:11;;;;;;;3.33;2.97;;;;;;;;;;10040367;28;20052;-64
2023/05/14 05:51:04;;;;;;;3.58;3.20;;;;;;;;;;10034105;28;20473;-63
2023/05/14 05:55:58;;;;;;;3.53;2.67;;;;;;;;;;10049482;28;20120;-64
2023/05/14 06:00:52;;;;;;;4.85;3.45;;;;;;;;;;10039334;28;20398;-64
2023/05/14 06:05:46;;;;;;;4.63;3.03;;;;;;;;;;10029254;28;20112;-64
2023/05/14 06:10:40;;;;;;;4.20;3.70;;;;;;;;;;10039107;28;20045;-63
2023/05/14 06:15:33;;;;;;;3.53;3.22;;;;;;;;;;10024513;28;20046;-64
2023/05/14 06:20:27;;;;;;;3.78;3.25;;;;;;;;;;10033729;28;20500;-63
2023/05/14 06:25:20;;;;;;;3.53;3.22;;;;;;;;;;10021487;28;20464;-64
2023/05/14 06:30:14;;;;;;;4.05;3.15;;;;;;;;;;10016839;28;20050;-64
2023/05/14 06:35:09;;;;;;;5.80;3.50;;;;;;;;;;10024713;28;20058;-64
2023/05/14 06:40:03;;;;;;;3.38;3.08;;;;;;;;;;10023195;28;20109;-64
2023/05/14 06:44:57;;;;;;;3.92;3.58;;;;;;;;;;10026946;28;20530;-64
2023/05/14 06:49:50;;;;;;;3.40;3.10;;;;;;;;;;10025578;28;20054;-63
2023/05/14 06:54:44;;;;;;;3.55;3.25;;;;;;;;;;10019558;28;20061;-64
2023/05/14 06:59:37;;;;;;;3.50;3.20;;;;;;;;;;10012864;28;20056;-64
2023/05/14 07:04:30;;;;;;;3.65;3.35;;;;;;;;;;10029114;28;20103;-64
2023/05/14 07:09:23;;;;;;;3.70;3.40;;;;;;;;;;10031417;28;20129;-64
2023/05/14 07:14:17;;;;;;;3.95;3.65;;;;;;;;;;10019391;28;20413;-64
2023/05/14 07:19:12;;;;;;;4.35;3.38;;;;;;;;;;10017026;28;20144;-63
2023/05/14 07:24:06;;;;;;;4.78;3.13;;;;;;;;;;10026397;28;20058;-64
2023/05/14 07:29:00;;;;;;;3.35;3.05;;;;;;;;;;10018432;28;20132;-64
2023/05/14 07:33:53;;;;;;;3.88;2.75;;;;;;;;;;10029834;28;20045;-63
2023/05/14 07:38:47;;;;;;;3.42;3.13;;;;;;;;;;10034122;28;20054;-64
2023/05/14 07:43:40;;;;;;;3.08;2.78;;;;;;;;;;10029236;28;20056;-65
2023/05/14 07:48:33;;;;;;;3.20;2.92;;;;;;;;;;10030971;28;20409;-64
2023/05/14 07:53:27;;;;;;;3.40;3.10;;;;;;;;;;10034303;28;20060;-64
2023/05/14 07:58:21;;;;;;;2.50;2.13;;;;;;;;;;10024746;28;20042;-64
2023/05/14 08:03:15;;;;;;;2.60;2.40;;;;;;;;;;10033269;28;20077;-63
2023/05/14 08:08:11;;;;;;;3.40;3.10;;;;;;;;;;10036343;28;20058;-64
2023/05/14 08:13:04;;;;;;;3.22;2.92;;;;;;;;;;10033640;28;20046;-64
2023/05/14 08:18:02;;;;;;;2.72;2.50;;;;;;;;;;10045182;28;20058;-64
2023/05/14 08:22:55;;;;;;;5.40;2.97;;;;;;;;;;10031423;28;20034;-65
2023/05/14 08:27:49;;;;;;;3.58;2.97;;;;;;;;;;10021905;28;20129;-66
2023/05/14 08:32:43;;;;;;;3.13;2.92;;;;;;;;;;10038221;28;20037;-64
2023/05/14 08:37:37;;;;;;;3.03;2.80;;;;;;;;;;10031129;28;20066;-65
2023/05/14 08:42:32;;;;;;;4.20;2.70;;;;;;;;;;10004833;28;20404;-62
2023/05/14 08:47:25;;;;;;;3.80;3.05;;;;;;;;;;10046552;28;20045;-63
2023/05/14 08:52:19;;;;;;;3.05;2.75;;;;;;;;;;10033920;28;20477;-62
2023/05/14 08:57:15;;;;;;;3.80;3.00;;;;;;;;;;10038994;28;20108;-62
2023/05/14 09:02:09;;;;;;;2.85;2.50;;;;;;;;;;10030074;28;20041;-61
2023/05/14 09:07:06;;;;;;;2.50;2.30;;;;;;;;;;10028308;28;20104;-61
2023/05/14 09:12:00;;;;;;;3.60;2.50;;;;;;;;;;10027415;28;20126;-61
2023/05/14 09:16:54;;;;;;;2.75;2.55;;;;;;;;;;10037738;28;20080;-62
2023/05/14 09:21:48;;;;;;;2.78;2.25;;;;;;;;;;10043389;28;20069;-61
2023/05/14 09:26:41;;;;;;;2.58;2.28;;;;;;;;;;10034338;28;20052;-62
2023/05/14 09:31:36;;;;;;;2.60;2.40;;;;;;;;;;10038896;28;20041;-61
2023/05/14 09:36:30;;;;;;;2.20;2.00;;;;;;;;;;10039739;28;20089;-60
2023/05/14 09:41:24;;;;;;;3.47;1.90;;;;;;;;;;10037817;28;20077;-60
2023/05/14 09:46:17;;;;;;;2.45;2.25;;;;;;;;;;10045072;28;20049;-60
2023/05/14 09:51:12;;;;;;;2.20;2.00;;;;;;;;;;10036892;28;20451;-61
2023/05/14 09:56:06;;;;;;;6.07;2.70;;;;;;;;;;10035755;28;20137;-60
2023/05/14 10:01:00;;;;;;;3.05;2.75;;;;;;;;;;10043479;28;20399;-60
2023/05/14 10:05:55;;;;;;;4.25;3.85;;;;;;;;;;10031131;28;20492;-60
2023/05/14 10:10:50;;;;;;;4.38;4.03;;;;;;;;;;10041391;28;20050;-60
2023/05/14 10:15:47;;;;;;;4.50;4.15;;;;;;;;;;10029932;28;20493;-60
2023/05/14 10:20:41;;;;;;;5.20;4.67;;;;;;;;;;10044295;28;20053;-60
2023/05/14 10:25:35;;;;;;;5.70;4.22;;;;;;;;;;10044285;28;20050;-60
2023/05/14 10:30:29;;;;;;;5.95;4.50;;;;;;;;;;10025559;28;20042;-60
2023/05/14 10:35:25;;;;;;;5.43;4.75;;;;;;;;;;10039023;28;20049;-60
2023/05/14 10:40:18;;;;;;;5.07;4.32;;;;;;;;;;10037001;28;20132;-60
2023/05/14 10:45:13;;;;;;;4.22;3.83;;;;;;;;;;10044340;28;20051;-60
2023/05/14 10:50:08;;;;;;;4.38;3.97;;;;;;;;;;10033202;28;20042;-60
2023/05/14 10:55:06;;;;;;;3.78;3.22;;;;;;;;;;10030791;28;20080;-60
2023/05/14 11:00:01;;;;;;;4.57;4.03;;;;;;;;;;10044255;28;20041;-60
2023/05/14 11:05:12;;;;;;;4.78;3.88;;;;;;;;;;10030577;28;20112;-60
2023/05/14 11:10:08;;;;;;;3.63;3.33;;;;;;;;;;10036901;28;20053;-60
2023/05/14 11:15:04;;;;;;;4.60;2.70;;;;;;;;;;10040021;28;20049;-60
2023/05/14 11:19:59;;;;;;;2.65;2.40;;;;;;;;;;10047568;28;20080;-60
2023/05/14 11:24:52;;;;;;;3.97;2.75;;;;;;;;;;10039833;28;20064;-60
2023/05/14 11:29:45;;;;;;;2.25;2.03;;;;;;;;;;10055964;28;20152;-60
2023/05/14 11:34:39;;;;;;;3.00;2.35;;;;;;;;;;10039952;28;20053;-60
2023/05/14 11:39:33;;;;;;;2.13;1.83;;;;;;;;;;10040851;28;20053;-60
2023/05/14 11:44:26;;;;;;;2.08;1.88;;;;;;;;;;10047104;28;20050;-60
2023/05/14 11:49:21;;;;;;;3.25;2.10;;;;;;;;;;10041180;28;20062;-60
2023/05/14 11:54:15;;;;;;;2.78;2.25;;;;;;;;;;10030829;28;20050;-60
2023/05/14 11:59:10;;;;;;;1.88;1.60;;;;;;;;;;10036641;28;20042;-60
2023/05/14 12:04:05;;;;;;;1.98;1.77;;;;;;;;;;10013711;28;20058;-60
2023/05/14 12:09:00;;;;;;;1.60;1.50;;;;;;;;;;10021935;28;20049;-62
2023/05/14 12:13:54;;;;;;;1.73;1.60;;;;;;;;;;10009111;28;20074;-61
2023/05/14 12:18:48;;;;;;;1.55;1.42;;;;;;;;;;10004111;28;20399;-61
2023/05/14 12:23:41;;;;;;;1.40;1.30;;;;;;;;;;10007377;28;20061;-62
2023/05/14 12:28:35;;;;;;;2.47;1.95;;;;;;;;;;10029406;28;20053;-62
2023/05/14 12:33:30;;;;;;;1.45;1.30;;;;;;;;;;10049289;28;20247;-62
2023/05/14 12:38:24;;;;;;;3.70;1.80;;;;;;;;;;10061553;28;20552;-62
2023/05/14 12:43:17;;;;;;;3.00;1.33;;;;;;;;;;10047809;28;20092;-62
2023/05/14 12:48:11;;;;;;;1.60;1.50;;;;;;;;;;10030869;28;20073;-63
2023/05/14 12:53:05;;;;;;;1.75;1.50;;;;;;;;;;10045151;28;20053;-62
2023/05/14 12:57:59;;;;;;;1.30;1.20;;;;;;;;;;10045628;28;20054;-62
2023/05/14 13:02:53;;;;;;;2.45;1.25;;;;;;;;;;10004497;28;20069;-61
2023/05/14 13:07:46;;;;;;;1.30;1.00;;;;;;;;;;10012387;28;20557;-62
2023/05/14 13:12:40;;;;;;;1.10;1.00;;;;;;;;;;10005588;28;20069;-62
2023/05/14 13:17:33;;;;;;;5.10;0.95;;;;;;;;;;10004097;28;20393;-62
2023/05/14 13:22:26;;;;;;;3.08;2.75;;;;;;;;;;10018520;28;20493;-61
2023/05/14 13:27:20;;;;;;;2.25;1.73;;;;;;;;;;10009215;28;20049;-61
2023/05/14 13:32:13;;;;;;;5.00;2.42;;;;;;;;;;10004939;28;20053;-60
2023/05/14 13:37:07;;;;;;;4.80;1.95;;;;;;;;;;10013049;28;20124;-61
2023/05/14 13:42:00;;;;;;;1.92;1.80;;;;;;;;;;10012275;28;20057;-61
2023/05/14 13:46:54;;;;;;;2.60;1.67;;;;;;;;;;10007697;28;20046;-61
2023/05/14 13:51:49;;;;;;;2.22;2.03;;;;;;;;;;10007875;28;20058;-61
2023/05/14 13:56:44;;;;;;;2.28;2.13;;;;;;;;;;10012158;28;20105;-61
2023/05/14 14:01:38;;;;;;;4.18;2.17;;;;;;;;;;10001606;28;20058;-61
2023/05/14 14:06:33;;;;;;;3.08;1.90;;;;;;;;;;10010379;28;20049;-61
2023/05/14 14:11:26;;;;;;;2.40;2.03;;;;;;;;;;10020529;28;20141;-61
2023/05/14 14:16:21;;;;;;;2.70;1.88;;;;;;;;;;10006072;28;20074;-61
2023/05/14 14:21:19;;;;;;;3.30;2.30;;;;;;;;;;10028716;28;20124;-61
2023/05/14 14:26:15;;;;;;;2.60;2.22;;;;;;;;;;10004530;28;20383;-61
2023/05/14 14:31:10;;;;;;;2.47;2.28;;;;;;;;;;10011448;28;20045;-62
2023/05/14 14:36:04;;;;;;;3.17;2.10;;;;;;;;;;10010064;28;20062;-61
2023/05/14 14:40:57;;;;;;;3.20;2.38;;;;;;;;;;10014193;28;20046;-62
2023/05/14 14:45:51;;;;;;;4.97;2.55;;;;;;;;;;10011206;28;20469;-62
2023/05/14 14:50:44;;;;;;;2.95;2.75;;;;;;;;;;10012402;28;20077;-61
2023/05/14 14:55:37;;;;;;;3.60;2.65;;;;;;;;;;10012140;28;20078;-60
2023/05/14 15:00:30;;;;;;;3.58;3.25;;;;;;;;;;10016289;28;20054;-61
2023/05/14 15:05:25;;;;;;;2.75;2.50;;;;;;;;;;10029818;28;20095;-63
2023/05/14 15:10:18;;;;;;;3.60;2.83;;;;;;;;;;10005007;28;20568;-61
2023/05/14 15:15:11;;;;;;;5.82;2.72;;;;;;;;;;10009890;28;20085;-61
2023/05/14 15:20:06;;;;;;;4.85;2.47;;;;;;;;;;10012549;28;20045;-61
2023/05/14 15:24:59;;;;;;;3.30;2.95;;;;;;;;;;10013098;28;20076;-63
2023/05/14 15:29:53;;;;;;;3.55;2.83;;;;;;;;;;10004901;28;20054;-61
2023/05/14 15:34:47;;;;;;;2.97;2.72;;;;;;;;;;10011051;28;20425;-61
2023/05/14 15:39:41;;;;;;;3.55;3.08;;;;;;;;;;10012342;28;20077;-60
2023/05/14 15:44:35;;;;;;;4.40;3.30;;;;;;;;;;10006469;28;20121;-61
2023/05/14 15:49:29;;;;;;;4.57;4.05;;;;;;;;;;10017334;28;20129;-60
2023/05/14 15:54:25;;;;;;;7.70;4.72;;;;;;;;;;10028282;28;20081;-61
2023/05/14 15:59:18;;;;;;;5.75;4.97;;;;;;;;;;10043618;28;20069;-62
2023/05/14 16:04:12;;;;;;;4.65;3.78;;;;;;;;;;10053889;28;20054;-62
2023/05/14 16:09:05;;;;;;;4.03;3.13;;;;;;;;;;10061711;28;20066;-62
2023/05/14 16:13:58;;;;;;;2.78;2.58;;;;;;;;;;10059849;28;20053;-62
2023/05/14 16:18:52;;;;;;;2.60;2.38;;;;;;;;;;10061238;28;20088;-62
2023/05/14 16:23:45;;;;;;;3.03;2.40;;;;;;;;;;10043074;28;20057;-62
2023/05/14 16:28:40;;;;;;;3.25;2.08;;;;;;;;;;10052396;28;20050;-62
2023/05/14 16:33:33;;;;;;;2.95;2.75;;;;;;;;;;10034867;28;20124;-62
2023/05/14 16:38:26;;;;;;;4.00;2.40;;;;;;;;;;10042464;28;20052;-62
2023/05/14 16:43:20;;;;;;;4.28;3.88;;;;;;;;;;10051631;28;20045;-62
2023/05/14 16:48:15;;;;;;;4.40;4.00;;;;;;;;;;10036281;28;20505;-62
2023/05/14 16:53:08;;;;;;;3.75;2.85;;;;;;;;;;10044741;28;20061;-64
2023/05/14 16:58:02;;;;;;;2.58;2.38;;;;;;;;;;10029912;28;20046;-62
2023/05/14 17:02:56;;;;;;;4.72;3.40;;;;;;;;;;10029396;28;20397;-62
2023/05/14 17:07:49;;;;;;;4.80;3.00;;;;;;;;;;10040476;28;20057;-61
2023/05/14 17:12:42;;;;;;;5.15;3.53;;;;;;;;;;10041786;28;20133;-62
2023/05/14 17:17:36;;;;;;;4.47;3.20;;;;;;;;;;10030364;28;20046;-62
2023/05/14 17:22:30;;;;;;;3.05;2.80;;;;;;;;;;10049284;28;20078;-62
2023/05/14 17:27:24;;;;;;;3.30;3.00;;;;;;;;;;10039913;28;20581;-62
2023/05/14 17:32:18;;;;;;;3.55;2.65;;;;;;;;;;10039888;28;20072;-62
2023/05/14 17:37:11;;;;;;;3.40;3.10;;;;;;;;;;10044024;28;20465;-62
2023/05/14 17:42:05;;;;;;;7.13;4.07;;;;;;;;;;10035735;28;20046;-62
2023/05/14 17:46:59;;;;;;;4.80;3.80;;;;;;;;;;10036315;28;20058;-62
2023/05/14 17:51:52;;;;;;;8.38;4.88;;;;;;;;;;10030057;28;20076;-61
2023/05/14 17:56:46;;;;;;;7.38;4.72;;;;;;;;;;10044648;28;20060;-62
2023/05/14 18:01:41;;;;;;;5.55;4.47;;;;;;;;;;10040831;28;20128;-63
2023/05/14 18:06:33;;;;;;;5.22;4.43;;;;;;;;;;10043417;28;20054;-61
2023/05/14 18:11:32;;;;;;;7.97;4.32;;;;;;;;;;10030583;28;20056;-62
2023/05/14 18:16:26;;;;;;;7.22;4.35;;;;;;;;;;10037752;28;20417;-60
2023/05/14 18:21:20;;;;;;;3.53;3.22;;;;;;;;;;10027865;28;20054;-60
2023/05/14 18:26:13;;;;;;;5.65;4.70;;;;;;;;;;10022424;28;20049;-59
2023/05/14 18:31:07;;;;;;;5.25;4.75;;;;;;;;;;10030297;28;20060;-59
2023/05/14 18:36:00;;;;;;;6.65;5.70;;;;;;;;;;10033990;28;20082;-60
2023/05/14 18:40:54;;;;;;;6.53;5.60;;;;;;;;;;10029273;28;20045;-60
2023/05/14 18:45:48;;;;;;;5.63;5.05;;;;;;;;;;10016853;28;20060;-59
2023/05/14 18:50:41;;;;;;;5.78;4.70;;;;;;;;;;10012200;28;20066;-59
2023/05/14 18:55:37;;;;;;;5.30;3.75;;;;;;;;;;10018160;28;20498;-61
2023/05/14 19:00:31;;;;;;;9.60;4.80;;;;;;;;;;10033769;28;20448;-60
2023/05/14 19:05:25;;;;;;;10.68;4.70;;;;;;;;;;10028536;28;20058;-63
2023/05/14 19:10:20;;;;;;;7.10;3.97;;;;;;;;;;10030150;28;20446;-59
2023/05/14 19:15:13;;;;;;;9.05;4.95;;;;;;;;;;10029980;28;20507;-60
2023/05/14 19:20:08;;;;;;;7.30;6.25;;;;;;;;;;10026818;28;20459;-60
2023/05/14 19:25:02;;;;;;;6.82;5.60;;;;;;;;;;10023380;28;20141;-59
2023/05/14 19:29:58;;;;;;;8.07;5.55;;;;;;;;;;10031347;28;20056;-59
2023/05/14 19:34:52;;;;;;;6.60;5.25;;;;;;;;;;10038455;28;20081;-59
2023/05/14 19:39:45;;;;;;;5.85;4.78;;;;;;;;;;10038383;28;20046;-59
2023/05/14 19:44:39;;;;;;;4.85;4.45;;;;;;;;;;10036290;28;20099;-58
2023/05/14 19:49:33;;;;;;;5.72;4.45;;;;;;;;;;10028662;28;20041;-59
2023/05/14 19:54:26;;;;;;;6.70;4.88;;;;;;;;;;10030722;28;20046;-59
2023/05/14 19:59:20;;;;;;;7.75;5.50;;;;;;;;;;10030347;28;20085;-59
2023/05/14 20:04:14;;;;;;;8.00;5.25;;;;;;;;;;10036719;28;20037;-59
2023/05/14 20:09:08;;;;;;;9.10;5.18;;;;;;;;;;10029920;28;20096;-59
2023/05/14 20:14:02;;;;;;;5.50;4.90;;;;;;;;;;10036905;28;20149;-60
2023/05/14 20:18:54;;;;;;;10.10;5.88;;;;;;;;;;10024136;28;20056;-59
2023/05/14 20:23:47;;;;;;;6.47;4.82;;;;;;;;;;10043227;28;20096;-60
2023/05/14 20:28:42;;;;;;;5.00;4.50;;;;;;;;;;10051110;28;20045;-59
2023/05/14 20:33:35;;;;;;;10.82;4.28;;;;;;;;;;10048183;28;20093;-59
2023/05/14 20:38:30;;;;;;;7.47;5.28;;;;;;;;;;10047913;28;20074;-59
2023/05/14 20:43:25;;;;;;;7.85;5.55;;;;;;;;;;10047441;28;20057;-59
2023/05/14 20:48:20;;;;;;;6.72;4.93;;;;;;;;;;10047680;28;20104;-59
2023/05/14 20:53:13;;;;;;;6.50;4.97;;;;;;;;;;10020440;28;20062;-59
2023/05/14 20:58:08;;;;;;;5.32;4.35;;;;;;;;;;10038347;28;20749;-59
2023/05/14 21:03:03;;;;;;;6.45;4.80;;;;;;;;;;10044751;28;20042;-60
2023/05/14 21:07:57;;;;;;;8.43;4.40;;;;;;;;;;10036992;28;20053;-60
2023/05/14 21:12:51;;;;;;;8.82;4.97;;;;;;;;;;10042180;28;20054;-59
2023/05/14 21:17:45;;;;;;;6.05;4.63;;;;;;;;;;10038698;28;20100;-60
2023/05/14 21:22:40;;;;;;;6.80;4.55;;;;;;;;;;10038794;28;20072;-60
2023/05/14 21:27:33;;;;;;;7.88;5.18;;;;;;;;;;10019737;28;20050;-61
2023/05/14 21:32:26;;;;;;;6.53;5.70;;;;;;;;;;10019180;28;20089;-61
2023/05/14 21:37:20;;;;;;;10.23;5.65;;;;;;;;;;10023344;28;20050;-60
2023/05/14 21:42:14;;;;;;;6.00;5.40;;;;;;;;;;10042259;28;20037;-60
2023/05/14 21:47:08;;;;;;;7.80;7.00;;;;;;;;;;10038690;28;20125;-61
2023/05/14 21:52:01;;;;;;;8.05;5.50;;;;;;;;;;10036795;28;20519;-62
2023/05/14 21:56:54;;;;;;;16.35;5.28;;;;;;;;;;10021603;28;20049;-60
2023/05/14 22:01:47;;;;;;;5.50;4.60;;;;;;;;;;10018772;28;20076;-61
2023/05/14 22:06:43;;;;;;;5.60;4.20;;;;;;;;;;10027177;28;20084;-61
2023/05/14 22:11:36;;;;;;;5.70;4.82;;;;;;;;;;10025979;28;20152;-60
2023/05/14 22:16:29;;;;;;;8.68;5.05;;;;;;;;;;10032122;28;20085;-60
2023/05/14 22:21:22;;;;;;;7.50;4.63;;;;;;;;;;10023401;28;20046;-61
2023/05/14 22:26:15;;;;;;;10.18;5.15;;;;;;;;;;10021799;28;20042;-60
2023/05/14 22:31:09;;;;;;;8.00;5.50;;;;;;;;;;10021321;28;20137;-60
2023/05/14 22:36:05;;;;;;;7.55;5.85;;;;;;;;;;10028559;28;20137;-61
2023/05/14 22:40:59;;;;;;;8.15;5.30;;;;;;;;;;10033046;28;20064;-61
2023/05/14 22:45:52;;;;;;;7.80;5.75;;;;;;;;;;10025668;28;20118;-61
2023/05/14 22:50:45;;;;;;;6.22;5.63;;;;;;;;;;10042570;28;20085;-61
2023/05/14 22:55:39;;;;;;;7.72;5.55;;;;;;;;;;10034324;28;20050;-61
2023/05/14 23:00:33;;;;;;;11.95;6.38;;;;;;;;;;10023877;28;20057;-61
2023/05/14 23:05:26;;;;;;;8.65;5.72;;;;;;;;;;10028815;28;20044;-61
2023/05/14 23:10:20;;;;;;;8.18;5.88;;;;;;;;;;10046259;28;20448;-61
2023/05/14 23:15:13;;;;;;;11.02;5.80;;;;;;;;;;10048253;28;20045;-61
2023/05/14 23:20:12;;;;;;;10.27;6.15;;;;;;;;;;10051205;28;20045;-61
2023/05/14 23:25:06;;;;;;;7.80;6.50;;;;;;;;;;10049863;28;20049;-60
2023/05/14 23:29:59;;;;;;;7.72;5.75;;;;;;;;;;10049074;28;20481;-61
2023/05/14 23:34:53;;;;;;;6.13;5.43;;;;;;;;;;10054246;28;20095;-61
2023/05/14 23:39:47;;;;;;;7.53;6.85;;;;;;;;;;10047198;28;20119;-61
2023/05/14 23:44:41;;;;;;;7.72;5.20;;;;;;;;;;10048078;28;20080;-61
2023/05/14 23:49:35;;;;;;;9.05;5.90;;;;;;;;;;10042314;28;20148;-61
2023/05/14 23:54:30;;;;;;;10.68;6.57;;;;;;;;;;10051161;28;20053;-61
2023/05/14 23:59:24;;;;;;;6.22;5.20;;;;;;;;;;10036959;28;20125;-61
